Reeseville, Wisconsin
Current Conditions -  °F | °C
As of 5:35 PM on Monday 20 Oct 2014 (Local Time) from KRYV Reporting Station
Overcast Overcast  
Wind Chill: 52°   Ceiling: 4800
Heat Index: 52°   Visibility: 10mi
Dew Point: 41°   Wind: 7mph
Humidity: 68%   Direction: 330°NNW
Pressure: 29.95"   Gusts: NA
Location:  43.3°N, 88.84°W
Report Text: KRYV 202235Z AUTO 33006KT 10SM OVC048 11/05 A2995 RMK AO2 T01090051
Loading
Personal Weather Stations






























Interactive Weather Map
Tropical Storm Tracking
New forecast layout! Learn more

10-Day Weather Forecast

Advertisements
Track Severe Weather on mobile